createdAt,value
2022-09-05T00:00:17.517Z,1004.25
2022-09-05T00:01:16.525Z,1004.32
2022-09-05T00:02:17.553Z,1004.28
2022-09-05T00:03:16.757Z,1004.27
2022-09-05T00:04:25.006Z,1004.29
2022-09-05T00:05:17.507Z,1004.27
2022-09-05T00:06:16.505Z,1004.31
2022-09-05T00:07:41.280Z,1004.32
2022-09-05T00:08:17.489Z,1004.36
2022-09-05T00:09:16.505Z,1004.31
2022-09-05T00:10:16.520Z,1004.35
2022-09-05T00:11:40.659Z,1004.30
2022-09-05T00:12:18.466Z,1004.32
2022-09-05T00:13:16.495Z,1004.28
2022-09-05T00:14:16.453Z,1004.32
2022-09-05T00:15:18.957Z,1004.22
2022-09-05T00:16:17.473Z,1004.25
2022-09-05T00:17:16.388Z,1004.23
2022-09-05T00:23:29.080Z,1004.29
2022-09-05T00:24:20.904Z,1004.24
2022-09-05T00:24:23.041Z,1004.23
2022-09-05T00:24:24.864Z,1004.31
2022-09-05T00:24:26.077Z,1004.28
2022-09-05T00:24:32.277Z,1004.34
2022-09-05T00:24:37.403Z,1004.30
2022-09-05T00:25:33.234Z,1004.25
2022-09-05T00:26:18.371Z,1004.21
2022-09-05T00:27:16.432Z,1004.25
2022-09-05T00:28:25.286Z,1004.23
2022-09-05T00:29:24.441Z,1004.23
2022-09-05T00:31:06.225Z,1004.25
2022-09-05T00:31:55.065Z,1004.27
2022-09-05T00:32:17.350Z,1004.27
2022-09-05T00:33:17.876Z,1004.26
2022-09-05T00:34:16.278Z,1004.22
2022-09-05T00:35:16.357Z,1004.27
2022-09-05T00:36:16.259Z,1004.22
2022-09-05T00:37:17.058Z,1004.21
2022-09-05T00:38:16.300Z,1004.25
2022-09-05T00:39:16.227Z,1004.23
2022-09-05T00:40:18.605Z,1004.23
2022-09-05T00:41:16.208Z,1004.27
2022-09-05T00:42:16.210Z,1004.22
2022-09-05T00:43:16.226Z,1004.28
2022-09-05T00:44:16.233Z,1004.28
2022-09-05T00:45:19.829Z,1004.28
2022-09-05T00:46:16.251Z,1004.24
2022-09-05T00:47:16.152Z,1004.32
2022-09-05T00:48:16.193Z,1004.30
2022-09-05T00:49:16.167Z,1004.29
2022-09-05T00:50:16.158Z,1004.32
2022-09-05T00:51:16.180Z,1004.30
2022-09-05T00:52:16.106Z,1004.26
2022-09-05T00:53:16.147Z,1004.32
2022-09-05T00:54:16.121Z,1004.21
2022-09-05T00:55:16.135Z,1004.33
2022-09-05T00:56:16.099Z,1004.28
2022-09-05T00:57:17.926Z,1004.30
2022-09-05T00:58:16.191Z,1004.28
2022-09-05T00:59:16.131Z,1004.33
2022-09-05T01:00:17.889Z,1004.26
2022-09-05T01:01:21.131Z,1004.30
2022-09-05T01:02:16.161Z,1004.28
2022-09-05T01:03:16.164Z,1004.29
2022-09-05T01:04:16.055Z,1004.28
2022-09-05T01:05:16.109Z,1004.32
2022-09-05T01:06:16.023Z,1004.38
2022-09-05T01:07:16.042Z,1004.39
2022-09-05T01:08:16.090Z,1004.35
2022-09-05T01:09:16.995Z,1004.37
2022-09-05T01:10:16.067Z,1004.40
2022-09-05T01:11:17.024Z,1004.38
2022-09-05T01:12:16.053Z,1004.44
2022-09-05T01:13:16.011Z,1004.43
2022-09-05T01:14:15.987Z,1004.42
2022-09-05T01:15:16.051Z,1004.37
2022-09-05T01:16:16.059Z,1004.37
2022-09-05T01:17:16.009Z,1004.42
2022-09-05T01:18:16.024Z,1004.31
2022-09-05T01:19:16.262Z,1004.37
2022-09-05T01:20:19.290Z,1004.46
2022-09-05T01:21:16.013Z,1004.41
2022-09-05T01:22:15.940Z,1004.48
2022-09-05T01:23:16.068Z,1004.41
2022-09-05T01:24:15.958Z,1004.42
2022-09-05T01:25:15.924Z,1004.48
2022-09-05T01:26:15.952Z,1004.48
2022-09-05T01:27:15.860Z,1004.44
2022-09-05T01:29:14.054Z,1004.46
2022-09-05T01:29:19.729Z,1004.48
2022-09-05T01:30:16.884Z,1004.49
2022-09-05T01:31:15.898Z,1004.56
2022-09-05T01:32:15.894Z,1004.44
2022-09-05T01:33:15.821Z,1004.46
2022-09-05T01:34:16.572Z,1004.47
2022-09-05T01:35:16.853Z,1004.47
2022-09-05T01:36:15.808Z,1004.52
2022-09-05T01:37:33.014Z,1004.49
2022-09-05T01:38:16.769Z,1004.45
2022-09-05T01:40:14.698Z,1004.47
2022-09-05T01:40:17.223Z,1004.47
2022-09-05T01:41:18.426Z,1004.44
2022-09-05T01:42:16.716Z,1004.34
2022-09-05T01:43:15.748Z,1004.42
2022-09-05T01:44:15.755Z,1004.33
2022-09-05T02:02:38.710Z,1004.36
2022-09-05T02:03:38.511Z,1004.40
2022-09-05T02:04:39.680Z,1004.37
2022-09-05T02:05:48.675Z,1004.30
2022-09-05T02:06:43.918Z,1004.34
2022-09-05T02:07:39.660Z,1004.36
2022-09-05T02:08:39.592Z,1004.33
2022-09-05T02:09:39.603Z,1004.38
2022-09-05T02:10:39.603Z,1004.32
2022-09-05T02:11:39.606Z,1004.29
2022-09-05T02:12:39.615Z,1004.32
2022-09-05T02:13:39.597Z,1004.32
2022-09-05T02:14:39.601Z,1004.27
2022-09-05T02:16:13.742Z,1004.20
2022-09-05T02:16:39.589Z,1004.26
2022-09-05T02:17:51.023Z,1004.26
2022-09-05T02:18:40.533Z,1004.25
2022-09-05T02:19:39.534Z,1004.28
2022-09-05T02:20:39.533Z,1004.27
2022-09-05T02:21:55.663Z,1004.29
2022-09-05T02:22:40.492Z,1004.26
2022-09-05T02:23:41.898Z,1004.26
2022-09-05T02:24:39.547Z,1004.28
2022-09-05T02:26:01.197Z,1004.19
2022-09-05T02:26:40.535Z,1004.21
2022-09-05T02:28:04.310Z,1004.26
2022-09-05T02:28:40.489Z,1004.18
2022-09-05T02:29:39.462Z,1004.16
2022-09-05T02:30:48.456Z,1004.16
2022-09-05T02:31:40.551Z,1004.19
2022-09-05T02:32:43.100Z,1004.20
2022-09-05T02:33:39.431Z,1004.20
2022-09-05T02:34:39.429Z,1004.25
2022-09-05T02:35:39.428Z,1004.24
2022-09-05T02:36:39.430Z,1004.20
2022-09-05T02:38:19.939Z,1004.24
2022-09-05T02:44:16.916Z,1004.24
2022-09-05T02:45:08.639Z,1004.18
2022-09-05T02:45:13.411Z,1004.18
2022-09-05T02:45:14.211Z,1004.20
2022-09-05T02:45:18.371Z,1004.16
2022-09-05T02:45:18.590Z,1004.15
2022-09-05T02:45:19.430Z,1004.16
2022-09-05T02:45:40.433Z,1004.15
2022-09-05T02:46:39.505Z,1004.13
2022-09-05T02:47:39.320Z,1004.16
2022-09-05T02:48:39.331Z,1004.16
2022-09-05T02:52:21.287Z,1004.11
2022-09-05T02:55:14.959Z,1004.15
2022-09-05T02:57:24.772Z,1004.12
2022-09-05T02:57:38.162Z,1004.14
2022-09-05T02:57:38.993Z,1004.06
2022-09-05T02:57:43.480Z,1004.12
2022-09-05T02:57:46.832Z,1004.10
2022-09-05T02:58:05.478Z,1004.09
2022-09-05T02:58:05.874Z,1004.12
2022-09-05T02:59:08.040Z,1004.06
2022-09-05T02:59:41.228Z,1004.05
2022-09-05T03:00:40.192Z,1004.04
2022-09-05T03:01:39.305Z,1004.02
2022-09-05T03:02:39.260Z,1004.02
2022-09-05T03:03:39.422Z,1004.04
2022-09-05T03:04:39.195Z,1003.98
2022-09-05T03:05:39.207Z,1004.01
2022-09-05T03:06:39.230Z,1003.96
2022-09-05T03:07:39.216Z,1003.97
2022-09-05T03:08:39.169Z,1003.99
2022-09-05T03:09:39.187Z,1004.00
2022-09-05T03:10:54.469Z,1003.93
2022-09-05T03:11:40.155Z,1003.98
2022-09-05T03:12:39.210Z,1003.95
2022-09-05T03:13:50.140Z,1003.92
2022-09-05T03:14:40.162Z,1004.00
2022-09-05T03:15:39.169Z,1003.99
2022-09-05T03:16:47.348Z,1004.02
2022-09-05T03:17:40.106Z,1004.01
2022-09-05T03:18:39.124Z,1004.07
2022-09-05T03:19:46.114Z,1004.08
2022-09-05T03:20:40.100Z,1004.01
2022-09-05T03:21:39.063Z,1003.97
2022-09-05T03:22:39.109Z,1003.95
2022-09-05T03:23:39.062Z,1003.98
2022-09-05T03:24:39.082Z,1003.96
2022-09-05T03:25:39.067Z,1003.95
2022-09-05T03:26:39.064Z,1003.97
2022-09-05T03:27:39.052Z,1003.96
2022-09-05T03:28:39.817Z,1003.94
2022-09-05T03:29:39.015Z,1003.95
2022-09-05T03:30:39.094Z,1003.91
2022-09-05T03:31:38.995Z,1003.96
2022-09-05T03:32:40.243Z,1004.01
2022-09-05T03:33:38.967Z,1004.01
2022-09-05T03:34:38.988Z,1003.92
2022-09-05T03:35:39.955Z,1004.01
2022-09-05T03:36:38.973Z,1004.02
2022-09-05T03:37:38.958Z,1004.00
2022-09-05T03:38:38.951Z,1003.98
2022-09-05T03:39:39.040Z,1004.08
2022-09-05T03:40:38.941Z,1004.02
2022-09-05T03:41:40.610Z,1004.06
2022-09-05T03:42:38.944Z,1004.01
2022-09-05T03:43:38.900Z,1004.02
2022-09-05T03:44:38.885Z,1004.03
2022-09-05T03:45:38.882Z,1004.08
2022-09-05T03:46:38.914Z,1004.10
2022-09-05T04:04:37.930Z,1004.44
2022-09-05T04:08:07.559Z,1004.49
2022-09-05T04:08:10.906Z,1004.50
2022-09-05T04:08:17.538Z,1004.48
2022-09-05T04:08:17.883Z,1004.47
2022-09-05T04:08:28.964Z,1004.43
2022-09-05T04:08:41.288Z,1004.47
2022-09-05T04:09:49.999Z,1004.45
2022-09-05T04:10:31.902Z,1004.43
2022-09-05T04:11:29.802Z,1004.46
2022-09-05T04:12:29.796Z,1004.40
2022-09-05T04:13:29.802Z,1004.42
2022-09-05T04:14:29.801Z,1004.43
2022-09-05T04:15:29.768Z,1004.40
2022-09-05T04:16:29.817Z,1004.41
2022-09-05T04:17:30.755Z,1004.42
2022-09-05T04:18:32.794Z,1004.41
2022-09-05T04:19:29.748Z,1004.38
2022-09-05T04:20:29.768Z,1004.41
2022-09-05T04:21:29.754Z,1004.35
2022-09-05T04:22:29.775Z,1004.40
2022-09-05T04:23:29.752Z,1004.42
2022-09-05T04:24:29.741Z,1004.40
2022-09-05T04:25:29.693Z,1004.34
2022-09-05T04:26:29.713Z,1004.37
2022-09-05T04:27:29.682Z,1004.35
2022-09-05T04:28:29.695Z,1004.36
2022-09-05T04:29:29.714Z,1004.39
2022-09-05T04:30:39.007Z,1004.34
2022-09-05T04:31:30.735Z,1004.40
2022-09-05T04:32:29.670Z,1004.39
2022-09-05T04:33:36.208Z,1004.38
2022-09-05T04:34:30.660Z,1004.35
2022-09-05T04:35:29.644Z,1004.35
2022-09-05T04:36:29.628Z,1004.33
2022-09-05T04:37:29.600Z,1004.31
2022-09-05T04:38:30.602Z,1004.30
2022-09-05T04:39:29.710Z,1004.34
2022-09-05T04:40:32.765Z,1004.31
2022-09-05T04:41:39.320Z,1004.40
2022-09-05T04:42:30.558Z,1004.33
2022-09-05T04:43:29.551Z,1004.35
2022-09-05T04:44:30.606Z,1004.34
2022-09-05T04:45:29.711Z,1004.38
2022-09-05T04:46:29.624Z,1004.39
2022-09-05T04:47:29.601Z,1004.39
2022-09-05T04:48:30.283Z,1004.36
2022-09-05T04:49:29.553Z,1004.40
2022-09-05T04:50:37.205Z,1004.38
2022-09-05T04:51:32.373Z,1004.39
2022-09-05T04:52:32.283Z,1004.35
2022-09-05T04:53:29.544Z,1004.43
2022-09-05T04:54:30.087Z,1004.42
2022-09-05T04:55:30.551Z,1004.46
2022-09-05T04:56:29.554Z,1004.43
2022-09-05T04:57:29.592Z,1004.43
2022-09-05T04:58:42.050Z,1004.47
2022-09-05T05:01:58.948Z,1004.49
2022-09-05T05:05:59.853Z,1004.48
2022-09-05T05:06:04.286Z,1004.53
2022-09-05T05:06:10.664Z,1004.56
2022-09-05T05:06:12.234Z,1004.61
2022-09-05T05:06:13.727Z,1004.55
2022-09-05T05:06:14.659Z,1004.57
2022-09-05T05:06:44.042Z,1004.63
2022-09-05T05:07:31.548Z,1004.61
2022-09-05T05:08:39.095Z,1004.60
2022-09-05T05:09:30.415Z,1004.61
2022-09-05T05:11:51.133Z,1004.63
2022-09-05T05:18:00.473Z,1004.61
2022-09-05T05:18:00.927Z,1004.66
2022-09-05T05:18:03.432Z,1004.64
2022-09-05T05:18:10.386Z,1004.62
2022-09-05T05:18:14.074Z,1004.65
2022-09-05T05:18:14.829Z,1004.59
2022-09-05T05:18:16.107Z,1004.70
2022-09-05T05:18:39.509Z,1004.61
2022-09-05T05:19:30.363Z,1004.62
2022-09-05T05:20:42.384Z,1004.64
2022-09-05T05:21:30.276Z,1004.54
2022-09-05T05:22:29.274Z,1004.50
2022-09-05T05:23:29.238Z,1004.45
2022-09-05T05:24:29.241Z,1004.30
2022-09-05T05:25:29.246Z,1004.26
2022-09-05T05:26:29.247Z,1004.22
2022-09-05T05:27:29.215Z,1004.14
2022-09-05T05:28:29.243Z,1004.14
2022-09-05T05:29:29.241Z,1004.14
2022-09-05T05:30:29.190Z,1004.05
2022-09-05T05:31:29.215Z,1004.05
2022-09-05T05:32:45.854Z,1003.99
2022-09-05T05:33:30.280Z,1003.98
2022-09-05T05:34:29.211Z,1004.03
2022-09-05T05:35:29.192Z,1003.97
2022-09-05T05:36:29.187Z,1003.89
2022-09-05T05:37:29.135Z,1003.88
2022-09-05T05:38:29.178Z,1003.88
2022-09-05T05:39:29.206Z,1003.83
2022-09-05T05:40:29.153Z,1003.82
2022-09-05T05:41:29.137Z,1003.76
2022-09-05T05:42:29.147Z,1003.76
2022-09-05T05:43:29.110Z,1003.77
2022-09-05T05:44:29.084Z,1003.72
2022-09-05T05:45:29.091Z,1003.66
2022-09-05T05:46:29.159Z,1003.67
2022-09-05T05:47:32.150Z,1003.69
2022-09-05T05:48:29.075Z,1003.60
2022-09-05T05:49:29.069Z,1003.58
2022-09-05T05:50:29.079Z,1003.64
2022-09-05T05:51:44.087Z,1003.61
2022-09-05T05:52:30.046Z,1003.66
2022-09-05T05:53:42.422Z,1003.63
2022-09-05T05:54:30.039Z,1003.59
2022-09-05T05:55:51.695Z,1003.62
2022-09-05T05:56:30.200Z,1003.53
2022-09-05T05:57:29.006Z,1003.61
2022-09-05T05:58:29.339Z,1003.57
2022-09-05T05:59:28.967Z,1003.53
2022-09-05T06:00:30.142Z,1003.57
2022-09-05T06:01:38.100Z,1003.58
2022-09-05T06:02:30.094Z,1003.54
2022-09-05T06:03:29.042Z,1003.50
2022-09-05T06:04:28.989Z,1003.44
2022-09-05T06:05:28.967Z,1003.57
2022-09-05T06:06:28.946Z,1003.53
2022-09-05T06:07:28.979Z,1003.53
2022-09-05T06:10:06.514Z,1003.55
2022-09-05T06:12:53.617Z,1003.45
2022-09-05T06:14:50.284Z,1003.42
2022-09-05T06:14:55.863Z,1003.40
2022-09-05T06:14:55.982Z,1003.41
2022-09-05T06:14:56.700Z,1003.43
2022-09-05T06:14:57.750Z,1003.41
2022-09-05T06:15:30.500Z,1003.41
2022-09-05T06:16:28.930Z,1003.37
2022-09-05T06:17:28.878Z,1003.36
2022-09-05T06:18:28.868Z,1003.34
2022-09-05T06:19:43.605Z,1003.31
2022-09-05T06:22:07.805Z,1003.32
2022-09-05T06:22:08.301Z,1003.31
2022-09-05T06:22:29.798Z,1003.29
2022-09-05T06:23:39.311Z,1003.29
2022-09-05T06:24:29.860Z,1003.28
2022-09-05T06:25:28.808Z,1003.38
2022-09-05T06:26:28.807Z,1003.34
2022-09-05T06:27:28.754Z,1003.28
2022-09-05T06:28:28.786Z,1003.34
2022-09-05T06:29:34.627Z,1003.22
2022-09-05T06:30:31.089Z,1003.34
2022-09-05T06:31:29.883Z,1003.32
2022-09-05T06:32:28.937Z,1003.31
2022-09-05T06:33:28.778Z,1003.35
2022-09-05T06:34:35.867Z,1003.21
2022-09-05T06:35:29.718Z,1003.32
2022-09-05T06:36:28.730Z,1003.30
2022-09-05T06:37:28.730Z,1003.29
2022-09-05T06:38:28.704Z,1003.25
2022-09-05T06:39:28.778Z,1003.32
2022-09-05T06:40:32.045Z,1003.30
2022-09-05T06:41:29.755Z,1003.30
2022-09-05T06:42:42.812Z,1003.29
2022-09-05T06:43:29.702Z,1003.31
2022-09-05T06:44:28.686Z,1003.29
2022-09-05T06:45:28.994Z,1003.27
2022-09-05T06:46:50.597Z,1003.30
2022-09-05T06:47:33.960Z,1003.23
2022-09-05T06:48:44.149Z,1003.21
2022-09-05T06:49:37.291Z,1003.23
2022-09-05T06:50:29.710Z,1003.24
2022-09-05T06:51:29.638Z,1003.28
2022-09-05T06:52:30.407Z,1003.32
2022-09-05T06:53:28.582Z,1003.27
2022-09-05T06:54:28.619Z,1003.29
2022-09-05T06:55:28.587Z,1003.29
2022-09-05T06:56:28.550Z,1003.29
2022-09-05T06:57:28.572Z,1003.34
2022-09-05T06:58:28.611Z,1003.34
2022-09-05T06:59:28.583Z,1003.37
2022-09-05T07:00:28.640Z,1003.37
2022-09-05T07:01:55.204Z,1003.34
2022-09-05T07:02:59.439Z,1003.45
2022-09-05T07:03:29.771Z,1003.44
2022-09-05T07:05:21.766Z,1003.45
2022-09-05T07:05:38.680Z,1003.37
2022-09-05T07:06:59.339Z,1003.35
2022-09-05T07:07:29.508Z,1003.32
2022-09-05T07:08:35.965Z,1003.39
2022-09-05T07:09:29.478Z,1003.34
2022-09-05T07:10:38.312Z,1003.30
2022-09-05T07:11:30.486Z,1003.27
2022-09-05T07:12:30.184Z,1003.32
2022-09-05T07:13:29.083Z,1003.35
2022-09-05T07:14:29.452Z,1003.24
2022-09-05T07:15:28.434Z,1003.35
2022-09-05T07:16:37.468Z,1003.39
2022-09-05T07:17:29.399Z,1003.43
2022-09-05T07:18:30.008Z,1003.47
2022-09-05T07:19:28.420Z,1003.44
2022-09-05T07:20:28.567Z,1003.45
2022-09-05T07:21:28.399Z,1003.40
2022-09-05T07:22:47.925Z,1003.36
2022-09-05T07:23:52.740Z,1003.36
2022-09-05T07:24:53.499Z,1003.42
2022-09-05T07:25:31.630Z,1003.43
2022-09-05T07:26:29.360Z,1003.41
2022-09-05T07:27:29.350Z,1003.42
2022-09-05T07:28:30.517Z,1003.54
2022-09-05T07:29:28.322Z,1003.48
2022-09-05T07:30:28.348Z,1003.47
2022-09-05T07:31:37.922Z,1003.38
2022-09-05T07:32:29.313Z,1003.33
2022-09-05T07:33:28.433Z,1003.38
2022-09-05T07:34:28.281Z,1003.40
2022-09-05T07:35:28.274Z,1003.39
2022-09-05T07:36:28.293Z,1003.44
2022-09-05T07:37:28.351Z,1003.50
2022-09-05T07:38:48.345Z,1003.55
2022-09-05T07:39:29.648Z,1003.44
2022-09-05T07:40:29.369Z,1003.45
2022-09-05T07:41:28.282Z,1003.50
2022-09-05T07:42:28.247Z,1003.40
2022-09-05T07:43:28.352Z,1003.42
2022-09-05T07:44:28.281Z,1003.41
2022-09-05T07:45:28.248Z,1003.41
2022-09-05T07:46:28.220Z,1003.34
2022-09-05T07:47:28.225Z,1003.34
2022-09-05T07:48:35.053Z,1003.40
2022-09-05T07:49:31.118Z,1003.35
2022-09-05T07:52:32.563Z,1003.45
2022-09-05T07:55:26.246Z,1003.55
2022-09-05T07:56:49.701Z,1003.53
2022-09-05T07:56:58.765Z,1003.41
2022-09-05T07:57:04.794Z,1003.40
2022-09-05T07:57:06.157Z,1003.49
2022-09-05T07:57:10.790Z,1003.50
2022-09-05T07:57:31.689Z,1003.40
2022-09-05T07:58:29.123Z,1003.37
2022-09-05T07:59:28.173Z,1003.40
2022-09-05T08:00:29.676Z,1003.37
2022-09-05T08:01:28.190Z,1003.34
2022-09-05T08:02:28.122Z,1003.30
2022-09-05T08:03:28.073Z,1003.28
2022-09-05T08:04:28.066Z,1003.26
2022-09-05T08:05:35.199Z,1003.23
2022-09-05T08:07:45.859Z,1003.23
2022-09-05T08:07:48.854Z,1003.25
2022-09-05T08:08:29.103Z,1003.14
2022-09-05T08:10:09.204Z,1003.10
2022-09-05T08:10:31.435Z,1003.16
2022-09-05T08:11:29.027Z,1003.15
2022-09-05T08:12:28.411Z,1003.03
2022-09-05T08:13:28.925Z,1003.05
2022-09-05T08:14:45.269Z,1003.06
2022-09-05T08:16:10.379Z,1003.10
2022-09-05T08:16:29.967Z,1003.08
2022-09-05T08:17:30.140Z,1003.17
2022-09-05T08:18:28.546Z,1003.16
2022-09-05T08:19:27.979Z,1003.23
2022-09-05T08:20:27.999Z,1003.14
2022-09-05T08:21:28.094Z,1003.19
2022-09-05T08:22:27.962Z,1003.14
2022-09-05T08:23:27.911Z,1003.15
2022-09-05T08:24:28.948Z,1003.15
2022-09-05T08:25:37.587Z,1003.16
2022-09-05T08:26:29.546Z,1003.14
2022-09-05T08:27:28.546Z,1003.14
2022-09-05T08:28:39.290Z,1003.12
2022-09-05T08:29:28.925Z,1003.12
2022-09-05T08:30:28.168Z,1003.14
2022-09-05T08:31:28.956Z,1003.06
2022-09-05T08:32:32.130Z,1003.12
2022-09-05T08:33:28.841Z,1003.14
2022-09-05T08:34:31.510Z,1003.03
2022-09-05T08:35:28.880Z,1003.03
2022-09-05T08:36:27.822Z,1003.09
2022-09-05T08:37:27.858Z,1003.15
2022-09-05T08:38:27.843Z,1003.06
2022-09-05T08:39:28.902Z,1003.01
2022-09-05T08:40:27.902Z,1003.10
2022-09-05T08:41:50.403Z,1003.07
2022-09-05T08:42:28.875Z,1003.09
2022-09-05T08:46:35.412Z,1003.02
2022-09-05T08:46:40.343Z,1003.08
2022-09-05T08:46:40.903Z,1003.08
2022-09-05T08:46:44.583Z,1003.11
2022-09-05T08:47:31.923Z,1003.10
2022-09-05T08:48:28.831Z,1003.14
2022-09-05T08:49:37.035Z,1003.11
2022-09-05T08:50:28.872Z,1003.11
2022-09-05T08:51:27.799Z,1003.12
2022-09-05T08:52:27.742Z,1003.14
2022-09-05T08:53:45.903Z,1003.08
2022-09-05T08:54:28.812Z,1003.05
2022-09-05T08:55:27.725Z,1003.10
2022-09-05T08:56:27.743Z,1003.08
2022-09-05T08:57:27.738Z,1003.05
2022-09-05T08:58:27.719Z,1003.03
2022-09-05T08:59:33.045Z,1003.05
2022-09-05T09:00:31.411Z,1003.04
2022-09-05T09:01:27.698Z,1002.99
2022-09-05T09:02:47.646Z,1002.96
2022-09-05T09:03:28.789Z,1002.96
2022-09-05T09:05:01.629Z,1002.96
2022-09-05T09:06:12.290Z,1003.03
2022-09-05T09:06:28.625Z,1002.94
2022-09-05T09:07:47.971Z,1002.86
2022-09-05T09:08:28.652Z,1002.84
2022-09-05T09:09:27.694Z,1002.90
2022-09-05T09:10:27.681Z,1002.92
2022-09-05T09:11:27.641Z,1002.86
2022-09-05T09:12:27.850Z,1002.87
2022-09-05T09:13:28.111Z,1002.84
2022-09-05T09:14:30.593Z,1002.79
2022-09-05T09:15:27.607Z,1002.75
2022-09-05T09:16:28.610Z,1002.74
2022-09-05T09:17:29.297Z,1002.79
2022-09-05T09:18:27.574Z,1002.81
2022-09-05T09:19:29.030Z,1002.68
2022-09-05T09:20:27.646Z,1002.74
2022-09-05T09:21:27.627Z,1002.74
2022-09-05T09:22:28.616Z,1002.78
2022-09-05T09:23:31.915Z,1002.74
2022-09-05T09:24:27.603Z,1002.74
2022-09-05T09:25:30.641Z,1002.71
2022-09-05T09:26:28.551Z,1002.74
2022-09-05T09:27:36.427Z,1002.70
2022-09-05T09:28:49.488Z,1002.69
2022-09-05T09:29:28.510Z,1002.66
2022-09-05T09:30:27.554Z,1002.69
2022-09-05T09:31:27.585Z,1002.73
2022-09-05T09:32:27.497Z,1002.66
2022-09-05T09:33:27.563Z,1002.65
2022-09-05T09:34:27.529Z,1002.64
2022-09-05T09:35:27.509Z,1002.65
2022-09-05T09:36:27.495Z,1002.62
2022-09-05T09:37:35.578Z,1002.61
2022-09-05T09:38:28.460Z,1002.54
2022-09-05T09:39:39.204Z,1002.52
2022-09-05T09:40:28.437Z,1002.52
2022-09-05T09:41:27.473Z,1002.47
2022-09-05T09:42:33.062Z,1002.49
2022-09-05T09:43:28.444Z,1002.43
2022-09-05T09:44:27.493Z,1002.44
2022-09-05T09:45:28.963Z,1002.43
2022-09-05T09:46:27.479Z,1002.39
2022-09-05T09:47:27.422Z,1002.31
2022-09-05T09:48:27.398Z,1002.31
2022-09-05T09:49:27.404Z,1002.36
2022-09-05T09:50:27.375Z,1002.36
2022-09-05T09:51:27.422Z,1002.35
2022-09-05T09:52:27.401Z,1002.30
2022-09-05T09:53:27.352Z,1002.27
2022-09-05T09:54:27.376Z,1002.30
2022-09-05T09:55:27.337Z,1002.31
2022-09-05T09:56:27.349Z,1002.25
2022-09-05T09:57:27.340Z,1002.32
2022-09-05T09:58:29.188Z,1002.27
2022-09-05T09:59:27.335Z,1002.29
2022-09-05T10:00:27.305Z,1002.33
2022-09-05T10:01:36.043Z,1002.34
2022-09-05T10:04:57.930Z,1002.32
2022-09-05T10:10:04.376Z,1002.31
2022-09-05T10:10:39.559Z,1002.31
2022-09-05T10:10:44.211Z,1002.26
2022-09-05T10:10:45.153Z,1002.24
2022-09-05T10:10:45.890Z,1002.21
2022-09-05T10:10:48.844Z,1002.25
2022-09-05T10:10:57.332Z,1002.23
2022-09-05T10:10:57.644Z,1002.25
2022-09-05T10:12:29.309Z,1002.17
2022-09-05T10:13:27.459Z,1002.17
2022-09-05T10:14:47.832Z,1002.13
2022-09-05T10:15:31.648Z,1002.14
2022-09-05T10:16:27.317Z,1002.09
2022-09-05T10:17:27.205Z,1002.04
2022-09-05T10:18:27.207Z,1002.04
2022-09-05T10:20:29.641Z,1002.03
2022-09-05T10:21:28.167Z,1002.09
2022-09-05T10:22:36.534Z,1002.10
2022-09-05T10:23:29.161Z,1002.08
2022-09-05T10:24:27.245Z,1002.12
2022-09-05T10:25:28.052Z,1002.06
2022-09-05T10:26:27.518Z,1002.06
2022-09-05T10:27:27.139Z,1002.01
2022-09-05T10:28:27.163Z,1002.07
2022-09-05T10:29:36.532Z,1002.02
2022-09-05T10:31:09.582Z,1002.03
2022-09-05T10:33:02.434Z,1002.03
2022-09-05T10:35:07.489Z,1002.05
2022-09-05T10:35:16.769Z,1002.01
2022-09-05T10:35:16.836Z,1002.01
2022-09-05T10:35:28.447Z,1002.02
2022-09-05T10:36:27.160Z,1002.04
2022-09-05T10:37:27.077Z,1001.98
2022-09-05T10:38:27.122Z,1002.02
2022-09-05T10:39:27.171Z,1001.99
2022-09-05T10:40:27.077Z,1002.01
2022-09-05T10:41:27.054Z,1001.98
2022-09-05T10:42:27.072Z,1001.95
2022-09-05T10:43:27.070Z,1001.97
2022-09-05T10:44:27.115Z,1001.99
2022-09-05T10:45:31.362Z,1001.92
2022-09-05T10:46:49.410Z,1001.87
2022-09-05T10:47:29.042Z,1001.89
2022-09-05T10:48:27.026Z,1001.93
2022-09-05T10:49:30.493Z,1001.96
2022-09-05T10:50:27.058Z,1001.99
2022-09-05T10:51:28.269Z,1002.03
2022-09-05T10:52:27.020Z,1002.05
2022-09-05T10:53:27.042Z,1002.08
2022-09-05T10:54:28.059Z,1002.11
2022-09-05T10:55:26.991Z,1002.16
2022-09-05T10:56:28.623Z,1002.12
2022-09-05T10:57:26.918Z,1002.15
2022-09-05T10:58:40.361Z,1002.17
2022-09-05T11:01:19.350Z,1002.16
2022-09-05T11:02:16.496Z,1002.06
2022-09-05T11:02:30.041Z,1002.04
2022-09-05T11:02:33.593Z,1002.05
2022-09-05T11:03:29.286Z,1002.06
2022-09-05T11:04:26.976Z,1002.04
2022-09-05T11:05:27.493Z,1001.95
2022-09-05T11:06:26.914Z,1001.90
2022-09-05T11:07:29.804Z,1001.74
2022-09-05T11:08:26.855Z,1001.87
2022-09-05T11:09:26.833Z,1001.90
2022-09-05T11:10:26.833Z,1001.85
2022-09-05T11:11:34.068Z,1001.85
2022-09-05T11:12:27.849Z,1001.88
2022-09-05T11:13:27.018Z,1001.91
2022-09-05T11:14:27.399Z,1001.86
2022-09-05T11:15:26.793Z,1001.90
2022-09-05T11:16:26.858Z,1001.92
2022-09-05T11:17:26.780Z,1002.05
2022-09-05T11:18:27.121Z,1002.05
2022-09-05T11:19:27.839Z,1001.97
2022-09-05T11:20:34.959Z,1002.14
2022-09-05T11:21:27.806Z,1002.09
2022-09-05T11:22:26.735Z,1002.09
2022-09-05T11:23:26.776Z,1002.10
2022-09-05T11:24:27.665Z,1002.01
2022-09-05T11:25:39.681Z,1002.05
2022-09-05T11:26:27.723Z,1002.05
2022-09-05T11:27:26.723Z,1002.05
2022-09-05T11:28:27.025Z,1002.11
2022-09-05T11:29:26.705Z,1002.10
2022-09-05T11:30:29.938Z,1002.14
2022-09-05T11:31:34.080Z,1002.16
2022-09-05T11:37:44.384Z,1002.19
2022-09-05T11:39:46.814Z,1002.18
2022-09-05T11:39:50.616Z,1002.17
2022-09-05T11:39:51.297Z,1002.22
2022-09-05T11:40:00.115Z,1002.22
2022-09-05T11:40:06.455Z,1002.19
2022-09-05T11:40:09.797Z,1002.23
2022-09-05T11:40:10.549Z,1002.22
2022-09-05T11:41:29.588Z,1002.16
2022-09-05T11:42:26.607Z,1002.14
2022-09-05T11:43:26.609Z,1002.12
2022-09-05T11:44:27.396Z,1002.16
2022-09-05T11:45:27.589Z,1002.12
2022-09-05T11:46:27.833Z,1002.18
2022-09-05T11:47:30.285Z,1002.15
2022-09-05T11:48:27.547Z,1002.19
2022-09-05T11:49:26.576Z,1002.16
2022-09-05T11:50:26.527Z,1002.12
2022-09-05T11:51:33.874Z,1002.07
2022-09-05T11:52:27.546Z,1002.05
2022-09-05T11:53:26.518Z,1001.97
2022-09-05T11:54:26.550Z,1001.98
2022-09-05T11:55:26.515Z,1001.92
2022-09-05T11:56:28.850Z,1001.92
2022-09-05T11:57:33.143Z,1001.88
2022-09-05T11:58:43.492Z,1001.84
2022-09-05T11:59:33.511Z,1001.77
2022-09-05T12:00:31.372Z,1001.83
2022-09-05T12:01:43.047Z,1001.72
2022-09-05T12:02:27.552Z,1001.72
2022-09-05T12:03:57.287Z,1001.69
2022-09-05T12:04:27.482Z,1001.59
2022-09-05T12:05:48.523Z,1001.54
2022-09-05T12:06:27.462Z,1001.50
2022-09-05T12:07:31.906Z,1001.54
2022-09-05T12:08:28.762Z,1001.46
2022-09-05T12:09:26.436Z,1001.42
2022-09-05T12:10:43.396Z,1001.41
2022-09-05T12:11:27.440Z,1001.37
2022-09-05T12:12:38.660Z,1001.40
2022-09-05T12:13:29.346Z,1001.33
2022-09-05T12:14:26.424Z,1001.26
2022-09-05T12:15:26.391Z,1001.30
2022-09-05T12:16:26.859Z,1001.27
2022-09-05T12:17:34.950Z,1001.25
2022-09-05T12:18:27.644Z,1001.23
2022-09-05T12:19:26.347Z,1001.26
2022-09-05T12:20:26.390Z,1001.19
2022-09-05T12:21:26.361Z,1001.23
2022-09-05T12:22:26.328Z,1001.17
2022-09-05T12:23:39.916Z,1001.24
2022-09-05T12:25:23.817Z,1001.29
2022-09-05T12:27:39.156Z,1001.35
2022-09-05T12:27:39.386Z,1001.29
2022-09-05T12:27:39.427Z,1001.35
2022-09-05T12:29:28.176Z,1001.39
2022-09-05T12:29:36.190Z,1001.45
2022-09-05T12:30:30.078Z,1001.37
2022-09-05T12:32:36.385Z,1001.49
2022-09-05T12:33:32.332Z,1001.54
2022-09-05T12:36:05.683Z,1001.55
2022-09-05T12:36:06.882Z,1001.58
2022-09-05T12:36:13.111Z,1001.57
2022-09-05T12:40:53.949Z,1001.62
2022-09-05T12:40:56.296Z,1001.66
2022-09-05T12:40:56.746Z,1001.63
2022-09-05T12:41:34.718Z,1001.67
2022-09-05T12:41:35.013Z,1001.70